sensor_id;sensor_type;location;lat;lon;timestamp;temperature;humidity
20803;DHT22;10562;-33.856;151.182;2023-11-21T00:02:07;26.30;99.90
20803;DHT22;10562;-33.856;151.182;2023-11-21T00:04:38;26.20;99.90
20803;DHT22;10562;-33.856;151.182;2023-11-21T00:07:11;26.00;99.90
20803;DHT22;10562;-33.856;151.182;2023-11-21T00:09:42;26.00;99.90
20803;DHT22;10562;-33.856;151.182;2023-11-21T00:12:12;25.80;99.90
20803;DHT22;10562;-33.856;151.182;2023-11-21T00:14:43;25.80;99.90
20803;DHT22;10562;-33.856;151.182;2023-11-21T00:17:15;25.80;99.90
20803;DHT22;10562;-33.856;151.182;2023-11-21T00:19:46;25.70;99.90
20803;DHT22;10562;-33.856;151.182;2023-11-21T00:22:21;25.70;99.90
20803;DHT22;10562;-33.856;151.182;2023-11-21T00:24:52;25.60;99.90
20803;DHT22;10562;-33.856;151.182;2023-11-21T00:27:23;25.50;99.90
20803;DHT22;10562;-33.856;151.182;2023-11-21T00:29:53;25.40;99.90
20803;DHT22;10562;-33.856;151.182;2023-11-21T00:32:24;25.50;99.90
20803;DHT22;10562;-33.856;151.182;2023-11-21T00:34:55;25.70;99.90
20803;DHT22;10562;-33.856;151.182;2023-11-21T00:37:29;25.90;99.90
20803;DHT22;10562;-33.856;151.182;2023-11-21T00:40:00;26.10;99.90
20803;DHT22;10562;-33.856;151.182;2023-11-21T00:42:33;26.30;99.90
20803;DHT22;10562;-33.856;151.182;2023-11-21T00:45:04;26.10;99.90
20803;DHT22;10562;-33.856;151.182;2023-11-21T00:47:36;26.20;99.90
20803;DHT22;10562;-33.856;151.182;2023-11-21T00:50:08;26.60;99.90
20803;DHT22;10562;-33.856;151.182;2023-11-21T00:52:41;26.90;99.90
20803;DHT22;10562;-33.856;151.182;2023-11-21T00:55:12;27.20;99.90
20803;DHT22;10562;-33.856;151.182;2023-11-21T00:57:42;27.50;99.90
20803;DHT22;10562;-33.856;151.182;2023-11-21T01:00:14;27.80;99.90
20803;DHT22;10562;-33.856;151.182;2023-11-21T01:02:46;27.90;99.90
20803;DHT22;10562;-33.856;151.182;2023-11-21T01:05:17;27.60;99.90
20803;DHT22;10562;-33.856;151.182;2023-11-21T01:07:49;27.50;99.90
20803;DHT22;10562;-33.856;151.182;2023-11-21T01:10:20;27.40;99.90
20803;DHT22;10562;-33.856;151.182;2023-11-21T01:12:51;27.20;99.90
20803;DHT22;10562;-33.856;151.182;2023-11-21T01:15:22;26.90;99.90
20803;DHT22;10562;-33.856;151.182;2023-11-21T01:17:53;26.90;99.90
20803;DHT22;10562;-33.856;151.182;2023-11-21T01:20:24;26.90;99.90
20803;DHT22;10562;-33.856;151.182;2023-11-21T01:22:57;26.60;99.90
20803;DHT22;10562;-33.856;151.182;2023-11-21T01:25:28;26.80;99.90
20803;DHT22;10562;-33.856;151.182;2023-11-21T01:27:59;27.20;99.90
20803;DHT22;10562;-33.856;151.182;2023-11-21T01:30:29;27.60;99.90
20803;DHT22;10562;-33.856;151.182;2023-11-21T01:33:00;28.20;99.90
20803;DHT22;10562;-33.856;151.182;2023-11-21T01:35:31;28.50;99.90
20803;DHT22;10562;-33.856;151.182;2023-11-21T01:38:04;28.60;99.90
20803;DHT22;10562;-33.856;151.182;2023-11-21T01:40:35;28.60;99.90
20803;DHT22;10562;-33.856;151.182;2023-11-21T01:43:06;28.60;99.90
20803;DHT22;10562;-33.856;151.182;2023-11-21T01:45:39;28.40;99.90
20803;DHT22;10562;-33.856;151.182;2023-11-21T01:48:10;28.10;99.90
20803;DHT22;10562;-33.856;151.182;2023-11-21T01:50:43;28.00;99.90
20803;DHT22;10562;-33.856;151.182;2023-11-21T01:53:16;27.90;99.90
20803;DHT22;10562;-33.856;151.182;2023-11-21T01:55:47;27.80;99.90
20803;DHT22;10562;-33.856;151.182;2023-11-21T01:58:18;27.70;99.90
20803;DHT22;10562;-33.856;151.182;2023-11-21T02:00:50;27.90;99.90
20803;DHT22;10562;-33.856;151.182;2023-11-21T02:03:22;28.20;99.90
20803;DHT22;10562;-33.856;151.182;2023-11-21T02:05:54;28.20;99.90
20803;DHT22;10562;-33.856;151.182;2023-11-21T02:08:27;28.10;99.90
20803;DHT22;10562;-33.856;151.182;2023-11-21T02:10:57;27.90;99.90
20803;DHT22;10562;-33.856;151.182;2023-11-21T02:13:30;28.00;99.90
20803;DHT22;10562;-33.856;151.182;2023-11-21T02:16:01;27.90;99.90
20803;DHT22;10562;-33.856;151.182;2023-11-21T02:18:35;27.80;99.90
20803;DHT22;10562;-33.856;151.182;2023-11-21T02:21:06;27.70;99.90
20803;DHT22;10562;-33.856;151.182;2023-11-21T02:23:39;27.60;99.90
20803;DHT22;10562;-33.856;151.182;2023-11-21T02:26:12;27.50;99.90
20803;DHT22;10562;-33.856;151.182;2023-11-21T02:28:44;27.50;99.90
20803;DHT22;10562;-33.856;151.182;2023-11-21T02:31:15;27.30;99.90
20803;DHT22;10562;-33.856;151.182;2023-11-21T02:33:46;27.10;99.90
20803;DHT22;10562;-33.856;151.182;2023-11-21T02:36:17;26.90;99.90
20803;DHT22;10562;-33.856;151.182;2023-11-21T02:38:51;26.90;99.90
20803;DHT22;10562;-33.856;151.182;2023-11-21T02:41:23;26.80;99.90
20803;DHT22;10562;-33.856;151.182;2023-11-21T02:43:54;26.70;99.90
20803;DHT22;10562;-33.856;151.182;2023-11-21T02:46:24;26.60;99.90
20803;DHT22;10562;-33.856;151.182;2023-11-21T02:48:55;26.40;99.90
20803;DHT22;10562;-33.856;151.182;2023-11-21T02:51:26;26.40;99.90
20803;DHT22;10562;-33.856;151.182;2023-11-21T02:54:06;26.40;99.90
20803;DHT22;10562;-33.856;151.182;2023-11-21T02:56:37;26.50;99.90
20803;DHT22;10562;-33.856;151.182;2023-11-21T02:59:09;26.70;99.90
20803;DHT22;10562;-33.856;151.182;2023-11-21T03:01:40;27.20;99.90
20803;DHT22;10562;-33.856;151.182;2023-11-21T03:04:11;27.30;99.90
20803;DHT22;10562;-33.856;151.182;2023-11-21T03:06:46;27.30;99.90
20803;DHT22;10562;-33.856;151.182;2023-11-21T03:09:18;27.20;99.90
20803;DHT22;10562;-33.856;151.182;2023-11-21T03:11:49;27.40;99.90
20803;DHT22;10562;-33.856;151.182;2023-11-21T03:14:20;27.60;99.90
20803;DHT22;10562;-33.856;151.182;2023-11-21T03:16:51;27.90;99.90
20803;DHT22;10562;-33.856;151.182;2023-11-21T03:19:22;28.20;99.90
20803;DHT22;10562;-33.856;151.182;2023-11-21T03:21:53;28.40;99.90
20803;DHT22;10562;-33.856;151.182;2023-11-21T03:24:26;28.60;99.90
20803;DHT22;10562;-33.856;151.182;2023-11-21T03:26:56;28.70;99.90
20803;DHT22;10562;-33.856;151.182;2023-11-21T03:29:27;28.90;99.90
20803;DHT22;10562;-33.856;151.182;2023-11-21T03:31:59;28.70;99.90
20803;DHT22;10562;-33.856;151.182;2023-11-21T03:34:30;28.50;99.90
20803;DHT22;10562;-33.856;151.182;2023-11-21T03:37:01;28.80;99.90
20803;DHT22;10562;-33.856;151.182;2023-11-21T03:39:34;29.20;99.90
20803;DHT22;10562;-33.856;151.182;2023-11-21T03:42:05;29.90;99.90
20803;DHT22;10562;-33.856;151.182;2023-11-21T03:44:36;30.30;99.90
20803;DHT22;10562;-33.856;151.182;2023-11-21T03:47:07;29.90;99.90
20803;DHT22;10562;-33.856;151.182;2023-11-21T03:49:38;29.30;99.90
20803;DHT22;10562;-33.856;151.182;2023-11-21T03:52:09;29.10;99.90
20803;DHT22;10562;-33.856;151.182;2023-11-21T03:54:42;29.00;99.90
20803;DHT22;10562;-33.856;151.182;2023-11-21T03:57:13;29.30;99.90
20803;DHT22;10562;-33.856;151.182;2023-11-21T03:59:44;29.90;99.90
20803;DHT22;10562;-33.856;151.182;2023-11-21T04:02:15;30.40;99.90
20803;DHT22;10562;-33.856;151.182;2023-11-21T04:04:45;30.50;99.90
20803;DHT22;10562;-33.856;151.182;2023-11-21T04:07:16;30.50;99.90
20803;DHT22;10562;-33.856;151.182;2023-11-21T04:09:51;30.90;99.90
20803;DHT22;10562;-33.856;151.182;2023-11-21T04:12:22;31.10;99.90
20803;DHT22;10562;-33.856;151.182;2023-11-21T04:14:53;31.40;99.90
20803;DHT22;10562;-33.856;151.182;2023-11-21T04:17:24;31.90;99.90
20803;DHT22;10562;-33.856;151.182;2023-11-21T04:19:55;32.30;99.90
20803;DHT22;10562;-33.856;151.182;2023-11-21T04:22:25;31.90;99.90
20803;DHT22;10562;-33.856;151.182;2023-11-21T04:24:58;31.30;99.90
20803;DHT22;10562;-33.856;151.182;2023-11-21T04:27:29;30.50;99.90
20803;DHT22;10562;-33.856;151.182;2023-11-21T04:30:00;30.00;99.90
20803;DHT22;10562;-33.856;151.182;2023-11-21T04:32:31;29.70;99.90
20803;DHT22;10562;-33.856;151.182;2023-11-21T04:35:02;29.10;99.90
20803;DHT22;10562;-33.856;151.182;2023-11-21T04:37:33;29.20;99.90
20803;DHT22;10562;-33.856;151.182;2023-11-21T04:40:08;29.70;99.90
20803;DHT22;10562;-33.856;151.182;2023-11-21T04:42:39;30.40;99.90
20803;DHT22;10562;-33.856;151.182;2023-11-21T04:45:10;30.70;99.90
20803;DHT22;10562;-33.856;151.182;2023-11-21T04:47:41;30.70;99.90
20803;DHT22;10562;-33.856;151.182;2023-11-21T04:50:13;31.20;99.90
20803;DHT22;10562;-33.856;151.182;2023-11-21T04:52:43;31.80;99.90
20803;DHT22;10562;-33.856;151.182;2023-11-21T04:55:17;32.20;99.90
20803;DHT22;10562;-33.856;151.182;2023-11-21T04:57:48;32.60;99.90
20803;DHT22;10562;-33.856;151.182;2023-11-21T05:00:19;32.60;99.90
20803;DHT22;10562;-33.856;151.182;2023-11-21T05:02:50;32.90;99.90
20803;DHT22;10562;-33.856;151.182;2023-11-21T05:05:22;32.90;99.90
20803;DHT22;10562;-33.856;151.182;2023-11-21T05:07:52;32.70;99.90
20803;DHT22;10562;-33.856;151.182;2023-11-21T05:10:25;32.80;99.90
20803;DHT22;10562;-33.856;151.182;2023-11-21T05:12:56;32.80;99.90
20803;DHT22;10562;-33.856;151.182;2023-11-21T05:15:27;32.80;99.90
20803;DHT22;10562;-33.856;151.182;2023-11-21T05:17:58;32.90;99.90
20803;DHT22;10562;-33.856;151.182;2023-11-21T05:20:29;32.90;99.90
20803;DHT22;10562;-33.856;151.182;2023-11-21T05:23:01;33.10;99.90
20803;DHT22;10562;-33.856;151.182;2023-11-21T05:25:34;33.20;99.90
20803;DHT22;10562;-33.856;151.182;2023-11-21T05:28:05;33.00;99.90
20803;DHT22;10562;-33.856;151.182;2023-11-21T05:30:36;33.00;99.90
20803;DHT22;10562;-33.856;151.182;2023-11-21T05:33:07;32.80;99.90
20803;DHT22;10562;-33.856;151.182;2023-11-21T05:35:38;32.50;99.90
20803;DHT22;10562;-33.856;151.182;2023-11-21T05:38:09;32.80;99.90
20803;DHT22;10562;-33.856;151.182;2023-11-21T05:40:43;32.10;99.90
20803;DHT22;10562;-33.856;151.182;2023-11-21T05:43:14;31.80;99.90
20803;DHT22;10562;-33.856;151.182;2023-11-21T05:45:45;31.60;99.90
20803;DHT22;10562;-33.856;151.182;2023-11-21T05:48:16;31.40;99.90
20803;DHT22;10562;-33.856;151.182;2023-11-21T05:50:47;30.70;99.90
20803;DHT22;10562;-33.856;151.182;2023-11-21T05:53:18;29.40;99.90
20803;DHT22;10562;-33.856;151.182;2023-11-21T05:55:51;28.20;99.90
20803;DHT22;10562;-33.856;151.182;2023-11-21T05:58:22;27.60;99.90
20803;DHT22;10562;-33.856;151.182;2023-11-21T06:00:54;26.90;99.90
20803;DHT22;10562;-33.856;151.182;2023-11-21T06:03:25;26.40;99.90
20803;DHT22;10562;-33.856;151.182;2023-11-21T06:05:56;26.00;99.90
20803;DHT22;10562;-33.856;151.182;2023-11-21T06:08:33;25.80;99.90
20803;DHT22;10562;-33.856;151.182;2023-11-21T06:11:06;25.60;99.90
20803;DHT22;10562;-33.856;151.182;2023-11-21T06:13:39;25.50;99.90
20803;DHT22;10562;-33.856;151.182;2023-11-21T06:16:11;25.40;99.90
20803;DHT22;10562;-33.856;151.182;2023-11-21T06:18:48;25.10;99.90
20803;DHT22;10562;-33.856;151.182;2023-11-21T06:21:19;25.10;99.90
20803;DHT22;10562;-33.856;151.182;2023-11-21T06:23:53;24.90;99.90
20803;DHT22;10562;-33.856;151.182;2023-11-21T06:26:41;25.00;99.90
20803;DHT22;10562;-33.856;151.182;2023-11-21T06:29:31;24.90;99.90
20803;DHT22;10562;-33.856;151.182;2023-11-21T06:32:06;25.00;99.90
20803;DHT22;10562;-33.856;151.182;2023-11-21T06:34:38;24.90;99.90
20803;DHT22;10562;-33.856;151.182;2023-11-21T06:37:16;24.80;99.90
20803;DHT22;10562;-33.856;151.182;2023-11-21T06:39:58;24.70;99.90
20803;DHT22;10562;-33.856;151.182;2023-11-21T06:42:33;24.50;99.90
20803;DHT22;10562;-33.856;151.182;2023-11-21T06:45:07;24.30;99.90
20803;DHT22;10562;-33.856;151.182;2023-11-21T06:47:39;24.30;99.90
20803;DHT22;10562;-33.856;151.182;2023-11-21T06:50:14;24.20;99.90
20803;DHT22;10562;-33.856;151.182;2023-11-21T06:52:45;24.30;99.90
20803;DHT22;10562;-33.856;151.182;2023-11-21T06:55:17;24.20;99.90
20803;DHT22;10562;-33.856;151.182;2023-11-21T06:57:50;24.20;99.90
20803;DHT22;10562;-33.856;151.182;2023-11-21T07:00:24;24.10;99.90
20803;DHT22;10562;-33.856;151.182;2023-11-21T07:02:57;24.00;99.90
20803;DHT22;10562;-33.856;151.182;2023-11-21T07:05:28;23.80;99.90
20803;DHT22;10562;-33.856;151.182;2023-11-21T07:07:59;23.70;99.90
20803;DHT22;10562;-33.856;151.182;2023-11-21T07:10:32;23.60;99.90
20803;DHT22;10562;-33.856;151.182;2023-11-21T07:13:18;23.50;99.90
20803;DHT22;10562;-33.856;151.182;2023-11-21T07:15:50;23.40;99.90
20803;DHT22;10562;-33.856;151.182;2023-11-21T07:18:27;23.30;99.90
20803;DHT22;10562;-33.856;151.182;2023-11-21T07:21:00;23.40;99.90
20803;DHT22;10562;-33.856;151.182;2023-11-21T07:23:40;23.30;99.90
20803;DHT22;10562;-33.856;151.182;2023-11-21T07:26:12;23.30;99.90
20803;DHT22;10562;-33.856;151.182;2023-11-21T07:28:48;23.40;99.90
20803;DHT22;10562;-33.856;151.182;2023-11-21T07:31:34;23.40;99.90
20803;DHT22;10562;-33.856;151.182;2023-11-21T07:34:10;23.40;99.90
20803;DHT22;10562;-33.856;151.182;2023-11-21T07:36:42;23.40;99.90
20803;DHT22;10562;-33.856;151.182;2023-11-21T07:39:15;23.40;99.90
20803;DHT22;10562;-33.856;151.182;2023-11-21T07:41:47;23.30;99.90
20803;DHT22;10562;-33.856;151.182;2023-11-21T07:44:34;23.20;99.90
20803;DHT22;10562;-33.856;151.182;2023-11-21T07:47:08;23.20;99.90
20803;DHT22;10562;-33.856;151.182;2023-11-21T07:49:45;23.20;99.90
20803;DHT22;10562;-33.856;151.182;2023-11-21T07:52:16;23.10;99.90
20803;DHT22;10562;-33.856;151.182;2023-11-21T07:54:48;23.00;99.90
20803;DHT22;10562;-33.856;151.182;2023-11-21T07:57:19;23.00;99.90
20803;DHT22;10562;-33.856;151.182;2023-11-21T07:59:52;23.00;99.90
20803;DHT22;10562;-33.856;151.182;2023-11-21T08:02:23;22.90;99.90
20803;DHT22;10562;-33.856;151.182;2023-11-21T08:04:55;22.90;99.90
20803;DHT22;10562;-33.856;151.182;2023-11-21T08:07:26;22.80;99.90
20803;DHT22;10562;-33.856;151.182;2023-11-21T08:09:57;22.70;99.90
20803;DHT22;10562;-33.856;151.182;2023-11-21T08:12:27;22.70;99.90
20803;DHT22;10562;-33.856;151.182;2023-11-21T08:15:00;22.70;99.90
20803;DHT22;10562;-33.856;151.182;2023-11-21T08:17:31;22.70;99.90
20803;DHT22;10562;-33.856;151.182;2023-11-21T08:20:02;22.70;99.90
20803;DHT22;10562;-33.856;151.182;2023-11-21T08:22:33;22.60;99.90
20803;DHT22;10562;-33.856;151.182;2023-11-21T08:25:04;22.60;99.90
20803;DHT22;10562;-33.856;151.182;2023-11-21T08:27:36;22.50;99.90
20803;DHT22;10562;-33.856;151.182;2023-11-21T08:30:09;22.40;99.90
20803;DHT22;10562;-33.856;151.182;2023-11-21T08:32:40;22.30;99.90
20803;DHT22;10562;-33.856;151.182;2023-11-21T08:35:12;22.20;99.90
20803;DHT22;10562;-33.856;151.182;2023-11-21T08:37:43;22.00;99.90
20803;DHT22;10562;-33.856;151.182;2023-11-21T08:40:14;22.00;99.90
20803;DHT22;10562;-33.856;151.182;2023-11-21T08:42:45;21.90;99.90
20803;DHT22;10562;-33.856;151.182;2023-11-21T08:45:18;21.80;99.90
20803;DHT22;10562;-33.856;151.182;2023-11-21T08:47:49;21.80;99.90
20803;DHT22;10562;-33.856;151.182;2023-11-21T08:50:20;21.80;99.90
20803;DHT22;10562;-33.856;151.182;2023-11-21T08:52:50;21.80;99.90
20803;DHT22;10562;-33.856;151.182;2023-11-21T08:55:21;21.70;99.90
20803;DHT22;10562;-33.856;151.182;2023-11-21T08:57:52;21.70;99.90
20803;DHT22;10562;-33.856;151.182;2023-11-21T09:00:25;21.70;99.90
20803;DHT22;10562;-33.856;151.182;2023-11-21T09:03:00;21.70;99.90
20803;DHT22;10562;-33.856;151.182;2023-11-21T09:05:39;21.70;99.90
20803;DHT22;10562;-33.856;151.182;2023-11-21T09:08:09;21.70;99.90
20803;DHT22;10562;-33.856;151.182;2023-11-21T09:10:40;21.60;99.90
20803;DHT22;10562;-33.856;151.182;2023-11-21T09:13:13;21.60;99.90
20803;DHT22;10562;-33.856;151.182;2023-11-21T09:15:46;21.60;99.90
20803;DHT22;10562;-33.856;151.182;2023-11-21T09:18:17;21.60;99.90
20803;DHT22;10562;-33.856;151.182;2023-11-21T09:20:48;21.60;99.90
20803;DHT22;10562;-33.856;151.182;2023-11-21T09:23:19;21.60;99.90
20803;DHT22;10562;-33.856;151.182;2023-11-21T09:25:50;21.60;99.90
20803;DHT22;10562;-33.856;151.182;2023-11-21T09:28:24;21.60;99.90
20803;DHT22;10562;-33.856;151.182;2023-11-21T09:30:57;21.60;99.90
20803;DHT22;10562;-33.856;151.182;2023-11-21T09:33:30;21.60;99.90
20803;DHT22;10562;-33.856;151.182;2023-11-21T09:36:02;21.60;99.90
20803;DHT22;10562;-33.856;151.182;2023-11-21T09:38:33;21.50;99.90
20803;DHT22;10562;-33.856;151.182;2023-11-21T09:41:05;21.50;99.90
20803;DHT22;10562;-33.856;151.182;2023-11-21T09:43:37;21.50;99.90
20803;DHT22;10562;-33.856;151.182;2023-11-21T09:46:11;21.50;99.90
20803;DHT22;10562;-33.856;151.182;2023-11-21T09:48:50;21.50;99.90
20803;DHT22;10562;-33.856;151.182;2023-11-21T09:51:24;21.50;99.90
20803;DHT22;10562;-33.856;151.182;2023-11-21T09:53:58;21.40;99.90
20803;DHT22;10562;-33.856;151.182;2023-11-21T09:56:30;21.40;99.90
20803;DHT22;10562;-33.856;151.182;2023-11-21T09:59:04;21.30;99.90
20803;DHT22;10562;-33.856;151.182;2023-11-21T10:01:40;21.30;99.90
20803;DHT22;10562;-33.856;151.182;2023-11-21T10:04:11;21.30;99.90
20803;DHT22;10562;-33.856;151.182;2023-11-21T10:06:42;21.30;99.90
20803;DHT22;10562;-33.856;151.182;2023-11-21T10:09:15;21.30;99.90
20803;DHT22;10562;-33.856;151.182;2023-11-21T10:11:48;21.40;99.90
20803;DHT22;10562;-33.856;151.182;2023-11-21T10:14:20;21.30;99.90
20803;DHT22;10562;-33.856;151.182;2023-11-21T10:16:58;21.30;99.90
20803;DHT22;10562;-33.856;151.182;2023-11-21T10:19:30;21.30;99.90
20803;DHT22;10562;-33.856;151.182;2023-11-21T10:22:02;21.30;99.90
20803;DHT22;10562;-33.856;151.182;2023-11-21T10:24:35;21.30;99.90
20803;DHT22;10562;-33.856;151.182;2023-11-21T10:27:06;21.30;99.90
20803;DHT22;10562;-33.856;151.182;2023-11-21T10:29:37;21.30;99.90
20803;DHT22;10562;-33.856;151.182;2023-11-21T10:32:13;21.30;99.90
20803;DHT22;10562;-33.856;151.182;2023-11-21T10:34:55;21.30;99.90
20803;DHT22;10562;-33.856;151.182;2023-11-21T10:37:27;21.30;99.90
20803;DHT22;10562;-33.856;151.182;2023-11-21T10:39:59;21.30;99.90
20803;DHT22;10562;-33.856;151.182;2023-11-21T10:42:33;21.30;99.90
20803;DHT22;10562;-33.856;151.182;2023-11-21T10:45:05;21.30;99.90
20803;DHT22;10562;-33.856;151.182;2023-11-21T10:47:43;21.30;99.90
20803;DHT22;10562;-33.856;151.182;2023-11-21T10:50:14;21.40;99.90
20803;DHT22;10562;-33.856;151.182;2023-11-21T10:52:48;21.40;99.90
20803;DHT22;10562;-33.856;151.182;2023-11-21T10:55:22;21.40;99.90
20803;DHT22;10562;-33.856;151.182;2023-11-21T10:57:55;21.40;99.90
20803;DHT22;10562;-33.856;151.182;2023-11-21T11:00:28;21.40;99.90
20803;DHT22;10562;-33.856;151.182;2023-11-21T11:03:01;21.50;99.90
20803;DHT22;10562;-33.856;151.182;2023-11-21T11:05:32;21.50;99.90
20803;DHT22;10562;-33.856;151.182;2023-11-21T11:08:05;21.40;99.90
20803;DHT22;10562;-33.856;151.182;2023-11-21T11:10:36;21.30;99.90
20803;DHT22;10562;-33.856;151.182;2023-11-21T11:13:08;21.10;99.90
20803;DHT22;10562;-33.856;151.182;2023-11-21T11:15:39;21.00;99.90
20803;DHT22;10562;-33.856;151.182;2023-11-21T11:18:12;20.90;99.90
20803;DHT22;10562;-33.856;151.182;2023-11-21T11:20:45;20.90;99.90
20803;DHT22;10562;-33.856;151.182;2023-11-21T11:23:32;20.90;99.90
20803;DHT22;10562;-33.856;151.182;2023-11-21T11:26:16;20.80;99.90
20803;DHT22;10562;-33.856;151.182;2023-11-21T11:29:00;20.70;99.90
20803;DHT22;10562;-33.856;151.182;2023-11-21T11:31:40;20.70;99.90
20803;DHT22;10562;-33.856;151.182;2023-11-21T11:34:23;20.70;99.90
20803;DHT22;10562;-33.856;151.182;2023-11-21T11:36:59;20.80;99.90
20803;DHT22;10562;-33.856;151.182;2023-11-21T11:39:34;20.80;99.90
20803;DHT22;10562;-33.856;151.182;2023-11-21T11:42:07;20.90;99.90
20803;DHT22;10562;-33.856;151.182;2023-11-21T11:44:55;20.90;99.90
20803;DHT22;10562;-33.856;151.182;2023-11-21T11:47:27;20.90;99.90
20803;DHT22;10562;-33.856;151.182;2023-11-21T11:50:07;20.90;99.90
20803;DHT22;10562;-33.856;151.182;2023-11-21T11:52:41;20.90;99.90
20803;DHT22;10562;-33.856;151.182;2023-11-21T11:55:13;20.90;99.90
20803;DHT22;10562;-33.856;151.182;2023-11-21T11:57:46;20.90;99.90
20803;DHT22;10562;-33.856;151.182;2023-11-21T12:00:19;20.90;99.90
20803;DHT22;10562;-33.856;151.182;2023-11-21T12:02:53;20.90;99.90
20803;DHT22;10562;-33.856;151.182;2023-11-21T12:05:27;20.90;99.90
20803;DHT22;10562;-33.856;151.182;2023-11-21T12:08:01;20.90;99.90
20803;DHT22;10562;-33.856;151.182;2023-11-21T12:10:33;20.90;99.90
20803;DHT22;10562;-33.856;151.182;2023-11-21T12:13:07;20.90;99.90
20803;DHT22;10562;-33.856;151.182;2023-11-21T12:15:40;20.80;99.90
20803;DHT22;10562;-33.856;151.182;2023-11-21T12:18:11;20.80;99.90
20803;DHT22;10562;-33.856;151.182;2023-11-21T12:20:43;20.70;99.90
20803;DHT22;10562;-33.856;151.182;2023-11-21T12:23:16;20.60;99.90
20803;DHT22;10562;-33.856;151.182;2023-11-21T12:25:47;20.60;99.90
20803;DHT22;10562;-33.856;151.182;2023-11-21T12:28:17;20.50;99.90
20803;DHT22;10562;-33.856;151.182;2023-11-21T12:30:50;20.50;99.90
20803;DHT22;10562;-33.856;151.182;2023-11-21T12:33:21;20.50;99.90
20803;DHT22;10562;-33.856;151.182;2023-11-21T12:35:58;20.60;99.90
20803;DHT22;10562;-33.856;151.182;2023-11-21T12:38:35;20.60;99.90
20803;DHT22;10562;-33.856;151.182;2023-11-21T12:41:06;20.60;99.90
20803;DHT22;10562;-33.856;151.182;2023-11-21T12:43:37;20.60;99.90
20803;DHT22;10562;-33.856;151.182;2023-11-21T12:46:09;20.60;99.90
20803;DHT22;10562;-33.856;151.182;2023-11-21T12:48:42;20.60;99.90
20803;DHT22;10562;-33.856;151.182;2023-11-21T12:51:15;20.60;99.90
20803;DHT22;10562;-33.856;151.182;2023-11-21T12:53:46;20.50;99.90
20803;DHT22;10562;-33.856;151.182;2023-11-21T12:56:17;20.40;99.90
20803;DHT22;10562;-33.856;151.182;2023-11-21T12:58:48;20.30;99.90
20803;DHT22;10562;-33.856;151.182;2023-11-21T13:01:19;20.30;99.90
20803;DHT22;10562;-33.856;151.182;2023-11-21T13:03:51;20.30;99.90
20803;DHT22;10562;-33.856;151.182;2023-11-21T13:06:24;20.30;99.90
20803;DHT22;10562;-33.856;151.182;2023-11-21T13:08:55;20.30;99.90
20803;DHT22;10562;-33.856;151.182;2023-11-21T13:11:27;20.40;99.90
20803;DHT22;10562;-33.856;151.182;2023-11-21T13:14:00;20.40;99.90
20803;DHT22;10562;-33.856;151.182;2023-11-21T13:16:33;20.50;99.90
20803;DHT22;10562;-33.856;151.182;2023-11-21T13:19:05;20.50;99.90
20803;DHT22;10562;-33.856;151.182;2023-11-21T13:21:38;20.50;99.90
20803;DHT22;10562;-33.856;151.182;2023-11-21T13:24:09;20.60;99.90
20803;DHT22;10562;-33.856;151.182;2023-11-21T13:26:40;20.60;99.90
20803;DHT22;10562;-33.856;151.182;2023-11-21T13:29:13;20.60;99.90
20803;DHT22;10562;-33.856;151.182;2023-11-21T13:31:44;20.70;99.90
20803;DHT22;10562;-33.856;151.182;2023-11-21T13:34:18;20.70;99.90
20803;DHT22;10562;-33.856;151.182;2023-11-21T13:36:52;20.70;99.90
20803;DHT22;10562;-33.856;151.182;2023-11-21T13:39:26;20.70;99.90
20803;DHT22;10562;-33.856;151.182;2023-11-21T13:42:00;20.70;99.90
20803;DHT22;10562;-33.856;151.182;2023-11-21T13:44:31;20.70;99.90
20803;DHT22;10562;-33.856;151.182;2023-11-21T13:47:06;20.70;99.90
20803;DHT22;10562;-33.856;151.182;2023-11-21T13:49:37;20.70;99.90
20803;DHT22;10562;-33.856;151.182;2023-11-21T13:52:10;20.70;99.90
20803;DHT22;10562;-33.856;151.182;2023-11-21T13:54:44;20.70;99.90
20803;DHT22;10562;-33.856;151.182;2023-11-21T13:57:15;20.80;99.90
20803;DHT22;10562;-33.856;151.182;2023-11-21T13:59:46;20.80;99.90
20803;DHT22;10562;-33.856;151.182;2023-11-21T14:02:17;20.80;99.90
20803;DHT22;10562;-33.856;151.182;2023-11-21T14:04:49;20.80;99.90
20803;DHT22;10562;-33.856;151.182;2023-11-21T14:07:29;20.80;99.90
20803;DHT22;10562;-33.856;151.182;2023-11-21T14:10:03;20.70;99.90
20803;DHT22;10562;-33.856;151.182;2023-11-21T14:12:35;20.70;99.90
20803;DHT22;10562;-33.856;151.182;2023-11-21T14:15:09;20.80;99.90
20803;DHT22;10562;-33.856;151.182;2023-11-21T14:17:44;20.70;99.90
20803;DHT22;10562;-33.856;151.182;2023-11-21T14:20:16;20.70;99.90
20803;DHT22;10562;-33.856;151.182;2023-11-21T14:22:50;20.70;99.90
20803;DHT22;10562;-33.856;151.182;2023-11-21T14:25:22;20.80;99.90
20803;DHT22;10562;-33.856;151.182;2023-11-21T14:27:53;20.80;99.90
20803;DHT22;10562;-33.856;151.182;2023-11-21T14:30:24;20.80;99.90
20803;DHT22;10562;-33.856;151.182;2023-11-21T14:32:55;20.80;99.90
20803;DHT22;10562;-33.856;151.182;2023-11-21T14:35:26;20.80;99.90
20803;DHT22;10562;-33.856;151.182;2023-11-21T14:38:00;20.80;99.90
20803;DHT22;10562;-33.856;151.182;2023-11-21T14:40:32;20.80;99.90
20803;DHT22;10562;-33.856;151.182;2023-11-21T14:43:03;20.80;99.90
20803;DHT22;10562;-33.856;151.182;2023-11-21T14:45:35;20.70;99.90
20803;DHT22;10562;-33.856;151.182;2023-11-21T14:48:07;20.60;99.90
20803;DHT22;10562;-33.856;151.182;2023-11-21T14:50:43;20.60;99.90
20803;DHT22;10562;-33.856;151.182;2023-11-21T14:53:45;20.60;99.90
20803;DHT22;10562;-33.856;151.182;2023-11-21T14:56:21;20.50;99.90
20803;DHT22;10562;-33.856;151.182;2023-11-21T14:58:58;20.50;99.90
20803;DHT22;10562;-33.856;151.182;2023-11-21T15:01:32;20.40;99.90
20803;DHT22;10562;-33.856;151.182;2023-11-21T15:04:23;20.30;99.90
20803;DHT22;10562;-33.856;151.182;2023-11-21T15:07:03;20.10;99.90
20803;DHT22;10562;-33.856;151.182;2023-11-21T15:09:36;20.00;99.90
20803;DHT22;10562;-33.856;151.182;2023-11-21T15:12:09;19.90;99.90
20803;DHT22;10562;-33.856;151.182;2023-11-21T15:14:45;19.90;99.90
20803;DHT22;10562;-33.856;151.182;2023-11-21T15:17:17;19.80;99.90
20803;DHT22;10562;-33.856;151.182;2023-11-21T15:19:52;19.80;99.90
20803;DHT22;10562;-33.856;151.182;2023-11-21T15:22:23;19.70;99.90